createdAt,value
2023-04-26T00:00:21.698Z,1.50
2023-04-26T00:02:50.097Z,2.77
2023-04-26T00:07:47.393Z,2.00
2023-04-26T00:10:15.153Z,1.53
2023-04-26T00:12:42.937Z,2.50
2023-04-26T00:15:12.308Z,2.10
2023-04-26T00:17:40.022Z,3.67
2023-04-26T00:20:11.523Z,2.93
2023-04-26T00:22:39.779Z,2.20
2023-04-26T00:25:08.092Z,1.67
2023-04-26T00:27:35.933Z,2.07
2023-04-26T00:30:03.939Z,2.10
2023-04-26T00:32:35.324Z,2.00
2023-04-26T00:35:04.999Z,1.53
2023-04-26T00:37:33.268Z,1.60
2023-04-26T00:40:01.122Z,1.80
2023-04-26T00:42:29.096Z,1.43
2023-04-26T00:44:57.643Z,1.50
2023-04-26T00:47:25.988Z,2.07
2023-04-26T00:49:55.021Z,2.67
2023-04-26T00:52:22.990Z,2.30
2023-04-26T00:54:51.437Z,1.60
2023-04-26T00:57:19.418Z,1.53
2023-04-26T00:59:47.493Z,1.50
2023-04-26T01:02:17.608Z,1.87
2023-04-26T01:04:46.551Z,1.57
2023-04-26T01:07:15.684Z,2.60
2023-04-26T01:09:44.117Z,1.60
2023-04-26T01:12:13.042Z,1.93
2023-04-26T01:14:41.087Z,1.73
2023-04-26T01:17:09.576Z,2.00
2023-04-26T01:19:38.116Z,1.73
2023-04-26T01:22:05.786Z,3.60
2023-04-26T01:24:36.743Z,1.87
2023-04-26T01:27:05.059Z,1.83
2023-04-26T01:29:33.132Z,2.63
2023-04-26T01:32:00.822Z,2.17
2023-04-26T01:34:29.482Z,3.00
2023-04-26T01:36:57.186Z,2.77
2023-04-26T01:39:24.920Z,2.73
2023-04-26T01:41:53.976Z,2.53
2023-04-26T01:44:21.661Z,2.80
2023-04-26T01:46:49.341Z,2.60
2023-04-26T01:49:17.080Z,3.90
2023-04-26T01:51:44.826Z,2.90
2023-04-26T01:54:12.772Z,3.17
2023-04-26T01:56:40.520Z,3.50
2023-04-26T01:59:09.621Z,3.50
2023-04-26T02:01:37.441Z,4.77
2023-04-26T02:04:06.446Z,3.70
2023-04-26T02:06:34.154Z,3.00
2023-04-26T02:09:01.851Z,3.87
2023-04-26T02:11:29.502Z,3.10
2023-04-26T02:13:57.440Z,2.90
2023-04-26T02:16:27.047Z,2.30
2023-04-26T02:18:55.732Z,3.23
2023-04-26T02:21:23.535Z,3.60
2023-04-26T02:23:51.297Z,3.50
2023-04-26T02:26:19.001Z,3.17
2023-04-26T02:28:46.653Z,2.57
2023-04-26T02:31:14.718Z,3.60
2023-04-26T02:33:44.242Z,4.13
2023-04-26T02:36:13.110Z,3.47
2023-04-26T02:38:41.636Z,3.00
2023-04-26T02:41:09.720Z,3.60
2023-04-26T02:43:37.753Z,3.27
2023-04-26T02:46:08.262Z,2.57
2023-04-26T02:48:36.193Z,3.07
2023-04-26T02:51:06.229Z,2.87
2023-04-26T02:53:34.101Z,2.80
2023-04-26T02:56:02.383Z,2.90
2023-04-26T02:58:30.328Z,2.40
2023-04-26T03:01:00.422Z,2.30
2023-04-26T03:03:29.293Z,2.80
2023-04-26T03:05:58.060Z,2.37
2023-04-26T03:08:27.208Z,2.07
2023-04-26T03:10:54.855Z,3.20
2023-04-26T03:13:23.948Z,2.77
2023-04-26T03:15:53.943Z,3.40
2023-04-26T03:18:22.813Z,3.23
2023-04-26T03:20:51.462Z,4.33
2023-04-26T03:23:19.658Z,3.60
2023-04-26T03:25:48.935Z,4.43
2023-04-26T03:28:16.802Z,3.47
2023-04-26T03:30:44.700Z,4.10
2023-04-26T03:33:13.453Z,3.70
2023-04-26T03:35:41.231Z,3.90
2023-04-26T03:38:08.942Z,3.80
2023-04-26T03:40:37.085Z,4.23
2023-04-26T03:43:06.248Z,3.90
2023-04-26T03:45:34.157Z,3.90
2023-04-26T03:48:02.505Z,3.80
2023-04-26T03:50:30.703Z,4.20
2023-04-26T03:52:58.481Z,4.00
2023-04-26T03:55:26.228Z,3.83
2023-04-26T03:57:55.009Z,3.47
2023-04-26T04:00:25.467Z,3.43
2023-04-26T04:02:53.450Z,5.80
2023-04-26T04:05:25.727Z,4.70
2023-04-26T04:07:53.547Z,3.00
2023-04-26T04:10:23.208Z,4.00
2023-04-26T04:12:51.235Z,3.60
2023-04-26T04:15:20.345Z,3.17
2023-04-26T04:17:50.438Z,4.37
2023-04-26T04:20:18.513Z,3.33
2023-04-26T04:22:48.075Z,3.40
2023-04-26T04:25:16.843Z,3.40
2023-04-26T04:27:45.195Z,3.17
2023-04-26T04:30:14.732Z,4.40
2023-04-26T04:32:45.099Z,4.37
2023-04-26T04:35:15.516Z,3.70
2023-04-26T04:37:44.132Z,3.47
2023-04-26T04:40:13.408Z,4.03
2023-04-26T04:42:46.191Z,4.63
2023-04-26T04:45:14.845Z,4.20
2023-04-26T04:47:43.406Z,4.27
2023-04-26T04:50:11.588Z,3.73
2023-04-26T04:52:40.920Z,4.03
2023-04-26T04:55:09.975Z,3.60
2023-04-26T04:57:42.161Z,4.40
2023-04-26T05:00:12.687Z,4.43
2023-04-26T05:03:08.623Z,4.57
2023-04-26T05:05:36.853Z,6.00
2023-04-26T05:08:07.705Z,4.47
2023-04-26T05:10:35.880Z,4.50
2023-04-26T05:13:04.105Z,4.00
2023-04-26T05:15:32.107Z,3.60
2023-04-26T05:18:00.273Z,4.17
2023-04-26T05:20:29.520Z,4.00
2023-04-26T05:22:57.598Z,4.63
2023-04-26T05:25:26.795Z,3.80
2023-04-26T05:28:05.452Z,4.30
2023-04-26T05:30:59.634Z,13.33
2023-04-26T05:33:37.660Z,4.20
2023-04-26T05:36:16.527Z,3.93
2023-04-26T05:38:44.220Z,4.00
2023-04-26T05:41:13.556Z,4.20
2023-04-26T05:43:41.754Z,4.07
2023-04-26T05:46:09.987Z,4.37
2023-04-26T05:48:38.138Z,4.73
2023-04-26T05:51:07.686Z,5.20
2023-04-26T05:53:36.046Z,5.33
2023-04-26T05:56:04.195Z,4.70
2023-04-26T05:58:34.760Z,4.30
2023-04-26T06:01:04.151Z,3.87
2023-04-26T06:03:32.553Z,3.87
2023-04-26T06:06:01.525Z,4.47
2023-04-26T06:08:30.263Z,4.47
2023-04-26T06:10:58.143Z,4.30
2023-04-26T06:13:28.248Z,4.07
2023-04-26T06:15:57.966Z,4.13
2023-04-26T06:18:25.977Z,3.97
2023-04-26T06:20:54.286Z,3.90
2023-04-26T06:23:22.637Z,4.33
2023-04-26T06:25:50.493Z,3.73
2023-04-26T06:28:18.328Z,4.33
2023-04-26T06:30:47.568Z,4.33
2023-04-26T06:33:17.074Z,4.17
2023-04-26T06:35:44.806Z,4.20
2023-04-26T06:38:13.491Z,3.67
2023-04-26T06:40:42.203Z,4.80
2023-04-26T06:43:10.844Z,4.50
2023-04-26T06:45:45.618Z,4.20
2023-04-26T06:48:14.331Z,3.90
2023-04-26T06:50:43.482Z,4.40
2023-04-26T06:53:11.194Z,4.40
2023-04-26T06:55:39.244Z,4.20
2023-04-26T06:58:07.029Z,4.47
2023-04-26T07:00:34.940Z,4.60
2023-04-26T07:03:03.145Z,4.53
2023-04-26T07:05:31.460Z,4.20
2023-04-26T07:08:00.651Z,3.93
2023-04-26T07:10:28.353Z,3.93
2023-04-26T07:12:56.295Z,4.00
2023-04-26T07:15:24.623Z,3.70
2023-04-26T07:17:52.368Z,3.00
2023-04-26T07:20:22.685Z,3.60
2023-04-26T07:22:50.743Z,3.90
2023-04-26T07:25:20.272Z,3.53
2023-04-26T07:27:48.076Z,3.70
2023-04-26T07:30:16.491Z,3.17
2023-04-26T07:32:44.794Z,3.83
2023-04-26T07:35:16.301Z,3.33
2023-04-26T07:37:45.065Z,3.63
2023-04-26T07:40:15.196Z,2.40
2023-04-26T07:42:44.278Z,3.10
2023-04-26T07:45:13.161Z,2.77
2023-04-26T07:47:41.160Z,3.00
2023-04-26T07:50:11.301Z,3.97
2023-04-26T07:52:39.143Z,4.07
2023-04-26T07:55:08.225Z,3.10
2023-04-26T07:57:36.524Z,3.57
2023-04-26T08:00:09.852Z,2.80
2023-04-26T08:02:45.091Z,3.00
2023-04-26T08:05:13.958Z,3.00
2023-04-26T08:07:43.374Z,2.20
2023-04-26T08:10:12.391Z,1.30
2023-04-26T08:12:41.015Z,1.63
2023-04-26T08:15:13.184Z,1.70
2023-04-26T08:17:42.126Z,1.67
2023-04-26T08:20:12.070Z,1.67
2023-04-26T08:22:43.879Z,1.93
2023-04-26T08:25:21.106Z,2.10
2023-04-26T08:27:53.330Z,2.27
2023-04-26T08:30:25.058Z,3.07
2023-04-26T08:32:52.957Z,2.27
2023-04-26T08:35:21.661Z,2.43
2023-04-26T08:37:50.369Z,2.20
2023-04-26T08:40:23.630Z,2.43
2023-04-26T08:42:53.638Z,2.77
2023-04-26T08:45:23.294Z,2.37
2023-04-26T08:47:52.824Z,2.97
2023-04-26T08:50:22.114Z,2.97
2023-04-26T08:52:51.907Z,2.50
2023-04-26T08:55:21.909Z,2.80
2023-04-26T08:57:50.779Z,2.53
2023-04-26T09:00:19.919Z,3.73
2023-04-26T09:02:51.163Z,4.00
2023-04-26T09:05:23.578Z,2.57
2023-04-26T09:07:53.091Z,2.70
2023-04-26T09:10:22.599Z,2.93
2023-04-26T09:12:53.274Z,2.60
2023-04-26T09:15:22.803Z,3.10
2023-04-26T09:17:52.820Z,2.87
2023-04-26T09:20:23.208Z,2.63
2023-04-26T09:22:52.168Z,3.47
2023-04-26T09:25:21.541Z,2.83
2023-04-26T09:27:51.243Z,3.20
2023-04-26T09:30:20.728Z,4.07
2023-04-26T09:32:53.179Z,3.50
2023-04-26T09:35:31.986Z,3.70
2023-04-26T09:38:07.390Z,2.60
2023-04-26T09:40:40.985Z,2.50
2023-04-26T09:43:10.158Z,2.83
2023-04-26T09:45:45.833Z,2.20
2023-04-26T09:48:17.142Z,2.20
2023-04-26T09:50:46.295Z,1.57
2023-04-26T09:53:26.834Z,1.60
2023-04-26T09:55:54.960Z,2.00
2023-04-26T09:58:23.171Z,3.00
2023-04-26T10:00:54.005Z,1.53
2023-04-26T10:03:24.302Z,1.40
2023-04-26T10:05:52.521Z,1.67
2023-04-26T10:08:20.870Z,1.80
2023-04-26T10:10:49.455Z,1.80
2023-04-26T10:13:17.708Z,1.70
2023-04-26T10:15:46.710Z,1.50
2023-04-26T10:18:14.560Z,1.70
2023-04-26T10:20:46.389Z,1.80
2023-04-26T10:23:21.146Z,2.53
2023-04-26T10:25:49.942Z,1.70
2023-04-26T10:28:18.844Z,1.87
2023-04-26T10:30:56.525Z,1.70
2023-04-26T10:33:25.552Z,1.53
2023-04-26T10:36:12.604Z,1.63
2023-04-26T10:38:43.170Z,1.93
2023-04-26T10:41:31.508Z,2.30
2023-04-26T10:44:01.729Z,1.23
2023-04-26T10:46:40.848Z,1.60
2023-04-26T10:49:19.902Z,2.50
2023-04-26T10:52:12.913Z,2.33
2023-04-26T10:55:02.972Z,1.50
2023-04-26T10:57:54.023Z,1.70
2023-04-26T11:00:31.406Z,1.50
2023-04-26T11:03:04.244Z,1.50
2023-04-26T11:05:39.610Z,2.00
2023-04-26T11:08:10.282Z,1.60
2023-04-26T11:10:41.612Z,1.23
2023-04-26T11:13:09.366Z,1.63
2023-04-26T11:15:37.259Z,1.50
2023-04-26T11:18:06.061Z,1.30
2023-04-26T11:20:34.610Z,1.60
2023-04-26T11:23:02.895Z,1.47
2023-04-26T11:25:32.343Z,1.30
2023-04-26T11:28:01.806Z,1.43
2023-04-26T11:30:31.607Z,1.37
2023-04-26T11:33:00.563Z,1.73
2023-04-26T11:35:29.772Z,1.43
2023-04-26T11:38:00.724Z,1.70
2023-04-26T11:40:29.727Z,1.50
2023-04-26T11:43:02.764Z,1.30
2023-04-26T11:45:34.071Z,1.40
2023-04-26T11:48:02.647Z,1.00
2023-04-26T11:50:32.952Z,1.47
2023-04-26T11:53:03.353Z,1.40
2023-04-26T11:55:33.338Z,0.80
2023-04-26T11:58:03.748Z,1.20
2023-04-26T12:00:31.612Z,1.20
2023-04-26T12:03:07.298Z,1.00
2023-04-26T12:05:38.585Z,0.90
2023-04-26T12:08:06.764Z,1.63
2023-04-26T12:10:36.889Z,1.07
2023-04-26T12:13:06.091Z,1.43
2023-04-26T12:15:34.856Z,1.13
2023-04-26T12:18:09.044Z,1.70
2023-04-26T12:20:37.898Z,2.13
2023-04-26T12:23:07.058Z,0.83
2023-04-26T12:25:35.782Z,2.00
2023-04-26T12:28:08.361Z,1.57
2023-04-26T12:30:36.267Z,1.63
2023-04-26T12:35:35.814Z,2.07
2023-04-26T12:38:03.603Z,0.80
2023-04-26T12:40:32.200Z,1.10
2023-04-26T12:43:00.543Z,1.47
2023-04-26T12:45:30.216Z,1.47
2023-04-26T12:47:58.521Z,1.27
2023-04-26T12:50:26.823Z,1.10
2023-04-26T12:52:55.089Z,1.30
2023-04-26T12:55:22.945Z,1.27
2023-04-26T12:57:51.258Z,1.50
2023-04-26T13:00:19.768Z,0.90
2023-04-26T13:02:48.863Z,1.63
2023-04-26T13:05:16.606Z,1.17
2023-04-26T13:07:44.818Z,1.10
2023-04-26T13:10:13.380Z,1.33
2023-04-26T13:12:44.315Z,1.47
2023-04-26T13:15:13.039Z,1.73
2023-04-26T13:17:42.942Z,1.50
2023-04-26T13:20:13.515Z,1.70
2023-04-26T13:22:43.225Z,1.40
2023-04-26T13:25:13.342Z,1.27
2023-04-26T13:27:41.814Z,1.40
2023-04-26T13:30:11.480Z,1.20
2023-04-26T13:32:39.889Z,1.30
2023-04-26T13:35:08.665Z,1.20
2023-04-26T13:37:38.086Z,2.67
2023-04-26T13:40:07.388Z,1.10
2023-04-26T13:42:35.159Z,1.30
2023-04-26T13:45:06.448Z,1.03
2023-04-26T13:47:35.047Z,0.83
2023-04-26T13:50:03.129Z,1.47
2023-04-26T13:52:31.198Z,0.90
2023-04-26T13:55:00.754Z,1.37
2023-04-26T13:57:28.426Z,1.90
2023-04-26T13:59:56.385Z,1.30
2023-04-26T14:02:24.605Z,1.67
2023-04-26T14:04:52.995Z,1.40
2023-04-26T14:07:21.161Z,1.60
2023-04-26T14:09:48.875Z,1.00
2023-04-26T14:12:17.868Z,0.83
2023-04-26T14:14:46.392Z,1.20
2023-04-26T14:17:14.186Z,1.20
2023-04-26T14:19:42.821Z,1.30
2023-04-26T14:22:12.999Z,1.60
2023-04-26T14:24:41.195Z,1.67
2023-04-26T14:27:08.968Z,1.60
2023-04-26T14:29:37.987Z,1.10
2023-04-26T14:32:06.296Z,1.07
2023-04-26T14:34:36.104Z,1.17
2023-04-26T14:37:04.892Z,1.90
2023-04-26T14:39:32.924Z,1.70
2023-04-26T14:42:00.674Z,1.67
2023-04-26T14:44:29.567Z,1.80
2023-04-26T14:46:58.883Z,1.10
2023-04-26T14:49:26.741Z,1.70
2023-04-26T14:51:54.507Z,1.60
2023-04-26T14:54:22.695Z,1.20
2023-04-26T14:56:51.430Z,1.33
2023-04-26T14:59:19.211Z,1.90
2023-04-26T15:01:47.206Z,1.43
2023-04-26T15:04:17.150Z,1.00
2023-04-26T15:06:45.672Z,1.27
2023-04-26T15:09:13.422Z,1.40
2023-04-26T15:11:41.561Z,1.10
2023-04-26T15:14:09.627Z,1.13
2023-04-26T15:16:37.530Z,1.67
2023-04-26T15:19:05.478Z,1.20
2023-04-26T15:21:34.578Z,1.70
2023-04-26T15:24:02.402Z,1.60
2023-04-26T15:26:31.089Z,1.30
2023-04-26T15:28:58.815Z,1.50
2023-04-26T15:31:26.951Z,1.40
2023-04-26T15:33:56.402Z,1.47
2023-04-26T15:36:24.191Z,2.70
2023-04-26T15:38:53.271Z,1.93
2023-04-26T15:41:21.162Z,2.20
2023-04-26T15:43:48.851Z,1.33
2023-04-26T15:46:16.778Z,1.80
2023-04-26T15:48:44.625Z,1.30
2023-04-26T15:51:12.512Z,2.40
2023-04-26T15:53:43.786Z,1.83
2023-04-26T15:56:16.451Z,1.40
2023-04-26T15:58:45.009Z,1.43
2023-04-26T16:01:12.939Z,1.20
2023-04-26T16:03:41.453Z,1.60
2023-04-26T16:06:10.555Z,1.73
2023-04-26T16:08:40.769Z,1.40
2023-04-26T16:11:08.891Z,1.60
2023-04-26T16:13:37.963Z,1.77
2023-04-26T16:16:08.030Z,1.57
2023-04-26T16:18:35.849Z,2.17
2023-04-26T16:21:07.477Z,1.60
2023-04-26T16:23:35.673Z,1.93
2023-04-26T16:26:03.896Z,1.77
2023-04-26T16:28:31.833Z,1.47
2023-04-26T16:31:01.165Z,1.60
2023-04-26T16:33:29.198Z,1.50
2023-04-26T16:35:57.185Z,2.10
2023-04-26T16:38:24.907Z,1.97
2023-04-26T16:40:58.027Z,2.10
2023-04-26T16:43:26.828Z,2.30
2023-04-26T16:45:59.174Z,1.70
2023-04-26T16:48:29.269Z,1.60
2023-04-26T16:50:56.923Z,2.40
2023-04-26T16:53:24.960Z,2.70
2023-04-26T16:55:53.113Z,1.80
2023-04-26T16:58:20.834Z,2.00
2023-04-26T17:00:48.728Z,2.47
2023-04-26T17:03:17.276Z,1.80
2023-04-26T17:05:47.904Z,2.43
2023-04-26T17:08:16.581Z,1.63
2023-04-26T17:10:44.823Z,2.03
2023-04-26T17:13:12.781Z,2.00
2023-04-26T17:15:41.110Z,1.53
2023-04-26T17:18:09.523Z,1.60
2023-04-26T17:20:37.386Z,1.43
2023-04-26T17:23:07.895Z,1.60
2023-04-26T17:25:36.145Z,1.93
2023-04-26T17:28:03.915Z,1.40
2023-04-26T17:30:31.766Z,1.80
2023-04-26T17:32:59.479Z,1.90
2023-04-26T17:35:27.437Z,1.90
2023-04-26T17:37:55.460Z,2.07
2023-04-26T17:40:24.842Z,1.73
2023-04-26T17:42:52.763Z,2.37
2023-04-26T17:45:25.759Z,1.80
2023-04-26T17:50:56.849Z,1.50
2023-04-26T17:53:24.637Z,1.67
2023-04-26T17:55:54.084Z,2.33
2023-04-26T17:58:21.957Z,1.83
2023-04-26T18:00:50.091Z,1.70
2023-04-26T18:03:17.956Z,1.30
2023-04-26T18:05:46.041Z,2.10
2023-04-26T18:08:13.811Z,1.97
2023-04-26T18:10:45.809Z,1.80
2023-04-26T18:13:16.518Z,2.27
2023-04-26T18:15:45.001Z,2.33
2023-04-26T18:18:12.930Z,1.70
2023-04-26T18:20:41.055Z,1.90
2023-04-26T18:23:08.775Z,1.70
2023-04-26T18:25:36.679Z,2.90
2023-04-26T18:28:04.525Z,2.40
2023-04-26T18:30:33.750Z,2.43
2023-04-26T18:33:01.682Z,2.23
2023-04-26T18:35:29.497Z,2.10
2023-04-26T18:37:57.151Z,2.40
2023-04-26T18:40:24.937Z,2.43
2023-04-26T18:42:52.906Z,2.50
2023-04-26T18:45:20.805Z,2.70
2023-04-26T18:47:49.876Z,3.40
2023-04-26T18:50:17.666Z,2.83
2023-04-26T18:52:45.941Z,2.90
2023-04-26T18:55:13.828Z,2.70
2023-04-26T18:57:41.608Z,3.10
2023-04-26T19:00:10.514Z,2.80
2023-04-26T19:02:40.164Z,2.60
2023-04-26T19:05:10.985Z,3.60
2023-04-26T19:07:40.081Z,3.00
2023-04-26T19:10:08.713Z,15.10
2023-04-26T19:12:36.412Z,4.50
2023-04-26T19:15:04.344Z,3.27
2023-04-26T19:17:33.345Z,2.57
2023-04-26T19:20:01.188Z,3.77
2023-04-26T19:22:31.132Z,2.23
2023-04-26T19:24:58.858Z,2.50
2023-04-26T19:27:26.482Z,2.93
2023-04-26T19:29:54.218Z,3.57
2023-04-26T19:32:22.905Z,2.70
2023-04-26T19:34:50.817Z,3.00
2023-04-26T19:37:18.756Z,1.93
2023-04-26T19:39:47.833Z,7.67
2023-04-26T19:42:15.496Z,3.53
2023-04-26T19:44:43.161Z,3.53
2023-04-26T19:47:11.284Z,3.30
2023-04-26T19:49:38.952Z,4.37
2023-04-26T19:52:06.797Z,2.90
2023-04-26T19:54:34.475Z,4.53
2023-04-26T19:57:04.399Z,7.10
2023-04-26T19:59:32.190Z,5.63
2023-04-26T20:02:00.040Z,3.80
2023-04-26T20:04:27.930Z,3.00
2023-04-26T20:06:56.209Z,3.27
2023-04-26T20:09:23.964Z,2.70
2023-04-26T20:11:52.005Z,3.37
2023-04-26T20:14:21.404Z,3.93
2023-04-26T20:16:49.278Z,3.20
2023-04-26T20:19:17.490Z,4.07
2023-04-26T20:21:45.286Z,3.30
2023-04-26T20:24:13.179Z,3.20
2023-04-26T20:26:41.059Z,2.33
2023-04-26T20:29:08.972Z,3.27
2023-04-26T20:31:38.552Z,4.17
2023-04-26T20:34:06.516Z,3.40
2023-04-26T20:36:34.678Z,4.23
2023-04-26T20:39:02.404Z,3.43
2023-04-26T20:41:30.219Z,3.10
2023-04-26T20:43:57.963Z,3.00
2023-04-26T20:46:26.089Z,3.17
2023-04-26T20:48:55.221Z,3.10
2023-04-26T20:51:22.997Z,2.77
2023-04-26T20:53:50.989Z,3.10
2023-04-26T20:56:19.183Z,2.80
2023-04-26T20:58:47.004Z,2.90
2023-04-26T21:01:14.852Z,3.10
2023-04-26T21:03:42.776Z,3.30
2023-04-26T21:06:11.981Z,3.03
2023-04-26T21:08:41.042Z,3.30
2023-04-26T21:11:08.763Z,3.90
2023-04-26T21:13:36.729Z,2.80
2023-04-26T21:16:05.164Z,2.53
2023-04-26T21:18:33.356Z,2.83
2023-04-26T21:21:01.513Z,3.87
2023-04-26T21:23:30.732Z,2.73
2023-04-26T21:25:58.978Z,3.07
2023-04-26T21:28:27.117Z,2.80
2023-04-26T21:31:04.329Z,2.67
2023-04-26T21:33:32.810Z,2.67
2023-04-26T21:36:01.212Z,3.23
2023-04-26T21:38:30.836Z,2.40
2023-04-26T21:40:58.882Z,3.20
2023-04-26T21:43:26.878Z,2.63
2023-04-26T21:45:58.220Z,3.03
2023-04-26T21:48:26.818Z,3.07
2023-04-26T21:50:54.945Z,2.90
2023-04-26T21:53:23.087Z,3.00
2023-04-26T21:55:53.603Z,3.10
2023-04-26T21:58:21.971Z,3.20
2023-04-26T22:00:50.214Z,3.30
2023-04-26T22:03:18.701Z,3.20
2023-04-26T22:05:47.054Z,3.03
2023-04-26T22:08:15.189Z,3.00
2023-04-26T22:10:43.248Z,3.67
2023-04-26T22:13:12.820Z,3.70
2023-04-26T22:15:41.132Z,3.67
2023-04-26T22:18:08.826Z,2.90
2023-04-26T22:20:36.638Z,3.90
2023-04-26T22:23:04.453Z,4.67
2023-04-26T22:25:32.244Z,3.73
2023-04-26T22:28:00.150Z,3.00
2023-04-26T22:30:29.301Z,3.43
2023-04-26T22:32:59.634Z,3.07
2023-04-26T22:35:28.603Z,4.10
2023-04-26T22:37:56.402Z,3.43
2023-04-26T22:40:24.110Z,3.23
2023-04-26T22:42:52.011Z,3.70
2023-04-26T22:45:20.200Z,3.50
2023-04-26T22:47:49.302Z,2.97
2023-04-26T22:50:16.992Z,3.00
2023-04-26T22:52:45.011Z,3.37
2023-04-26T22:55:12.913Z,4.27
2023-04-26T22:57:41.131Z,3.40
2023-04-26T23:00:12.434Z,3.20
2023-04-26T23:02:40.621Z,4.07
2023-04-26T23:05:10.667Z,3.10
2023-04-26T23:07:38.614Z,3.10
2023-04-26T23:10:08.370Z,4.10
2023-04-26T23:12:37.023Z,3.47
2023-04-26T23:15:05.969Z,4.00
2023-04-26T23:17:34.161Z,3.80
2023-04-26T23:20:02.264Z,3.23
2023-04-26T23:22:31.569Z,3.13
2023-04-26T23:24:59.430Z,3.10
2023-04-26T23:27:27.199Z,3.20
2023-04-26T23:29:54.894Z,3.00
2023-04-26T23:32:22.524Z,3.60
2023-04-26T23:34:50.199Z,3.17
2023-04-26T23:37:18.048Z,2.77
2023-04-26T23:39:47.183Z,2.87
2023-04-26T23:42:14.878Z,3.30
2023-04-26T23:44:42.694Z,3.60
2023-04-26T23:47:10.461Z,3.73
2023-04-26T23:49:38.092Z,4.73
2023-04-26T23:52:06.125Z,3.30
2023-04-26T23:54:33.921Z,3.53
2023-04-26T23:57:04.061Z,3.40
2023-04-26T23:59:31.877Z,3.30
